sensor_id;sensor_type;location;lat;lon;timestamp;pressure;altitude;pressure_sealevel;temperature;humidity
25944;BME280;13742;49.306;8.636;2022-12-07T00:01:54;100707.45;;;4.96;99.99
25944;BME280;13742;49.306;8.636;2022-12-07T00:02:55;100706.84;;;4.95;100.00
25944;BME280;13742;49.306;8.636;2022-12-07T00:03:58;100706.91;;;4.96;100.00
25944;BME280;13742;49.306;8.636;2022-12-07T00:04:54;100706.73;;;4.95;100.00
25944;BME280;13742;49.306;8.636;2022-12-07T00:05:57;100707.55;;;4.94;100.00
25944;BME280;13742;49.306;8.636;2022-12-07T00:06:54;100703.53;;;4.95;100.00
25944;BME280;13742;49.306;8.636;2022-12-07T00:07:54;100706.25;;;4.94;100.00
25944;BME280;13742;49.306;8.636;2022-12-07T00:08:54;100700.36;;;4.94;100.00
25944;BME280;13742;49.306;8.636;2022-12-07T00:09:54;100704.13;;;4.92;100.00
25944;BME280;13742;49.306;8.636;2022-12-07T00:10:54;100703.75;;;4.90;100.00
25944;BME280;13742;49.306;8.636;2022-12-07T00:11:54;100704.19;;;4.88;99.84
25944;BME280;13742;49.306;8.636;2022-12-07T00:12:54;100704.65;;;4.87;100.00
25944;BME280;13742;49.306;8.636;2022-12-07T00:14:00;100698.62;;;4.86;100.00
25944;BME280;13742;49.306;8.636;2022-12-07T00:14:54;100700.72;;;4.85;100.00
25944;BME280;13742;49.306;8.636;2022-12-07T00:15:54;100698.67;;;4.85;100.00
25944;BME280;13742;49.306;8.636;2022-12-07T00:16:54;100698.67;;;4.82;100.00
25944;BME280;13742;49.306;8.636;2022-12-07T00:17:54;100696.48;;;4.81;99.98
25944;BME280;13742;49.306;8.636;2022-12-07T00:18:54;100697.87;;;4.82;100.00
25944;BME280;13742;49.306;8.636;2022-12-07T00:19:54;100697.92;;;4.78;100.00
25944;BME280;13742;49.306;8.636;2022-12-07T00:20:59;100696.45;;;4.76;100.00
25944;BME280;13742;49.306;8.636;2022-12-07T00:21:54;100696.97;;;4.74;100.00
25944;BME280;13742;49.306;8.636;2022-12-07T00:22:54;100698.28;;;4.74;100.00
25944;BME280;13742;49.306;8.636;2022-12-07T00:23:55;100698.09;;;4.73;100.00
25944;BME280;13742;49.306;8.636;2022-12-07T00:24:54;100692.82;;;4.73;100.00
25944;BME280;13742;49.306;8.636;2022-12-07T00:25:54;100693.86;;;4.72;100.00
25944;BME280;13742;49.306;8.636;2022-12-07T00:26:54;100696.02;;;4.72;100.00
25944;BME280;13742;49.306;8.636;2022-12-07T00:27:56;100695.20;;;4.72;99.94
25944;BME280;13742;49.306;8.636;2022-12-07T00:28:55;100690.92;;;4.71;99.91
25944;BME280;13742;49.306;8.636;2022-12-07T00:29:54;100691.73;;;4.72;100.00
25944;BME280;13742;49.306;8.636;2022-12-07T00:30:59;100687.20;;;4.71;100.00
25944;BME280;13742;49.306;8.636;2022-12-07T00:31:54;100686.92;;;4.71;100.00
25944;BME280;13742;49.306;8.636;2022-12-07T00:32:54;100687.87;;;4.71;100.00
25944;BME280;13742;49.306;8.636;2022-12-07T00:33:55;100686.16;;;4.70;99.95
25944;BME280;13742;49.306;8.636;2022-12-07T00:34:54;100681.92;;;4.69;99.82
25944;BME280;13742;49.306;8.636;2022-12-07T00:35:55;100681.02;;;4.66;99.65
25944;BME280;13742;49.306;8.636;2022-12-07T00:36:54;100680.23;;;4.64;99.63
25944;BME280;13742;49.306;8.636;2022-12-07T00:37:54;100678.58;;;4.63;99.51
25944;BME280;13742;49.306;8.636;2022-12-07T00:38:54;100675.21;;;4.61;99.62
25944;BME280;13742;49.306;8.636;2022-12-07T00:39:54;100676.33;;;4.61;99.48
25944;BME280;13742;49.306;8.636;2022-12-07T00:40:57;100678.41;;;4.61;99.90
25944;BME280;13742;49.306;8.636;2022-12-07T00:41:54;100676.50;;;4.60;100.00
25944;BME280;13742;49.306;8.636;2022-12-07T00:42:54;100673.28;;;4.60;100.00
25944;BME280;13742;49.306;8.636;2022-12-07T00:43:55;100670.73;;;4.60;100.00
25944;BME280;13742;49.306;8.636;2022-12-07T00:44:54;100669.00;;;4.59;100.00
25944;BME280;13742;49.306;8.636;2022-12-07T00:45:55;100667.03;;;4.59;100.00
25944;BME280;13742;49.306;8.636;2022-12-07T00:46:55;100666.27;;;4.59;100.00
25944;BME280;13742;49.306;8.636;2022-12-07T00:47:54;100666.60;;;4.58;100.00
25944;BME280;13742;49.306;8.636;2022-12-07T00:48:54;100662.79;;;4.58;100.00
25944;BME280;13742;49.306;8.636;2022-12-07T00:49:54;100662.84;;;4.57;100.00
25944;BME280;13742;49.306;8.636;2022-12-07T00:50:54;100664.69;;;4.58;100.00
25944;BME280;13742;49.306;8.636;2022-12-07T00:51:54;100665.94;;;4.59;100.00
25944;BME280;13742;49.306;8.636;2022-12-07T00:52:54;100666.81;;;4.60;100.00
25944;BME280;13742;49.306;8.636;2022-12-07T00:53:54;100668.48;;;4.61;100.00
25944;BME280;13742;49.306;8.636;2022-12-07T00:54:54;100668.72;;;4.61;100.00
25944;BME280;13742;49.306;8.636;2022-12-07T00:55:56;100669.70;;;4.60;100.00
25944;BME280;13742;49.306;8.636;2022-12-07T00:56:54;100671.22;;;4.61;100.00
25944;BME280;13742;49.306;8.636;2022-12-07T00:57:54;100672.20;;;4.61;100.00
25944;BME280;13742;49.306;8.636;2022-12-07T00:58:56;100669.66;;;4.61;100.00
25944;BME280;13742;49.306;8.636;2022-12-07T00:59:57;100669.10;;;4.60;100.00
25944;BME280;13742;49.306;8.636;2022-12-07T01:00:54;100670.78;;;4.60;100.00
25944;BME280;13742;49.306;8.636;2022-12-07T01:01:54;100669.93;;;4.59;100.00
25944;BME280;13742;49.306;8.636;2022-12-07T01:02:54;100668.33;;;4.60;100.00
25944;BME280;13742;49.306;8.636;2022-12-07T01:03:54;100670.80;;;4.59;100.00
25944;BME280;13742;49.306;8.636;2022-12-07T01:04:54;100675.86;;;4.62;100.00
25944;BME280;13742;49.306;8.636;2022-12-07T01:05:55;100674.61;;;4.60;100.00
25944;BME280;13742;49.306;8.636;2022-12-07T01:06:54;100671.84;;;4.60;100.00
25944;BME280;13742;49.306;8.636;2022-12-07T01:07:54;100672.38;;;4.52;100.00
25944;BME280;13742;49.306;8.636;2022-12-07T01:08:54;100669.19;;;4.49;100.00
25944;BME280;13742;49.306;8.636;2022-12-07T01:09:54;100667.70;;;4.48;100.00
25944;BME280;13742;49.306;8.636;2022-12-07T01:11:54;100662.61;;;4.50;100.00
25944;BME280;13742;49.306;8.636;2022-12-07T01:12:54;100659.98;;;4.50;100.00
25944;BME280;13742;49.306;8.636;2022-12-07T01:13:55;100661.29;;;4.47;100.00
25944;BME280;13742;49.306;8.636;2022-12-07T01:14:54;100663.52;;;4.47;100.00
25944;BME280;13742;49.306;8.636;2022-12-07T01:15:56;100665.76;;;4.44;100.00
25944;BME280;13742;49.306;8.636;2022-12-07T01:16:54;100668.91;;;4.46;100.00
25944;BME280;13742;49.306;8.636;2022-12-07T01:17:54;100670.16;;;4.48;100.00
25944;BME280;13742;49.306;8.636;2022-12-07T01:18:55;100675.59;;;4.43;100.00
25944;BME280;13742;49.306;8.636;2022-12-07T01:19:54;100676.75;;;4.39;100.00
25944;BME280;13742;49.306;8.636;2022-12-07T01:21:54;100679.72;;;4.40;100.00
25944;BME280;13742;49.306;8.636;2022-12-07T01:22:54;100686.00;;;4.44;100.00
25944;BME280;13742;49.306;8.636;2022-12-07T01:23:54;100680.03;;;4.43;100.00
25944;BME280;13742;49.306;8.636;2022-12-07T01:24:54;100676.78;;;4.42;100.00
25944;BME280;13742;49.306;8.636;2022-12-07T01:25:57;100675.37;;;4.44;100.00
25944;BME280;13742;49.306;8.636;2022-12-07T01:26:54;100675.73;;;4.43;100.00
25944;BME280;13742;49.306;8.636;2022-12-07T01:27:54;100680.75;;;4.44;100.00
25944;BME280;13742;49.306;8.636;2022-12-07T01:28:55;100685.11;;;4.45;100.00
25944;BME280;13742;49.306;8.636;2022-12-07T01:29:54;100685.73;;;4.45;100.00
25944;BME280;13742;49.306;8.636;2022-12-07T01:30:58;100685.22;;;4.46;100.00
25944;BME280;13742;49.306;8.636;2022-12-07T01:31:54;100683.70;;;4.47;100.00
25944;BME280;13742;49.306;8.636;2022-12-07T01:32:54;100681.36;;;4.48;100.00
25944;BME280;13742;49.306;8.636;2022-12-07T01:33:56;100686.15;;;4.50;100.00
25944;BME280;13742;49.306;8.636;2022-12-07T01:34:54;100680.95;;;4.50;100.00
25944;BME280;13742;49.306;8.636;2022-12-07T01:35:54;100683.52;;;4.51;100.00
25944;BME280;13742;49.306;8.636;2022-12-07T01:36:54;100683.67;;;4.51;100.00
25944;BME280;13742;49.306;8.636;2022-12-07T01:37:54;100680.91;;;4.53;100.00
25944;BME280;13742;49.306;8.636;2022-12-07T01:38:58;100681.27;;;4.53;100.00
25944;BME280;13742;49.306;8.636;2022-12-07T01:39:54;100683.63;;;4.54;100.00
25944;BME280;13742;49.306;8.636;2022-12-07T01:40:55;100685.25;;;4.55;100.00
25944;BME280;13742;49.306;8.636;2022-12-07T01:41:54;100690.11;;;4.55;100.00
25944;BME280;13742;49.306;8.636;2022-12-07T01:42:54;100687.30;;;4.57;100.00
25944;BME280;13742;49.306;8.636;2022-12-07T01:45:55;100692.54;;;4.57;100.00
25944;BME280;13742;49.306;8.636;2022-12-07T01:46:56;100689.56;;;4.56;100.00
25944;BME280;13742;49.306;8.636;2022-12-07T01:47:55;100692.86;;;4.57;100.00
25944;BME280;13742;49.306;8.636;2022-12-07T01:48:54;100686.29;;;4.56;100.00
25944;BME280;13742;49.306;8.636;2022-12-07T01:49:54;100686.06;;;4.57;100.00
25944;BME280;13742;49.306;8.636;2022-12-07T01:50:55;100680.44;;;4.57;100.00
25944;BME280;13742;49.306;8.636;2022-12-07T01:51:57;100683.38;;;4.57;100.00
25944;BME280;13742;49.306;8.636;2022-12-07T01:52:55;100680.44;;;4.57;100.00
25944;BME280;13742;49.306;8.636;2022-12-07T01:53:54;100678.22;;;4.57;100.00
25944;BME280;13742;49.306;8.636;2022-12-07T01:54:56;100677.89;;;4.57;100.00
25944;BME280;13742;49.306;8.636;2022-12-07T01:55:54;100674.13;;;4.58;100.00
25944;BME280;13742;49.306;8.636;2022-12-07T01:56:54;100675.48;;;4.59;100.00
25944;BME280;13742;49.306;8.636;2022-12-07T01:57:54;100672.63;;;4.60;100.00
25944;BME280;13742;49.306;8.636;2022-12-07T01:58:54;100672.66;;;4.60;100.00
25944;BME280;13742;49.306;8.636;2022-12-07T01:59:54;100670.67;;;4.59;100.00
25944;BME280;13742;49.306;8.636;2022-12-07T02:00:54;100670.73;;;4.58;100.00
25944;BME280;13742;49.306;8.636;2022-12-07T02:01:54;100665.45;;;4.58;100.00
25944;BME280;13742;49.306;8.636;2022-12-07T02:03:54;100667.34;;;4.58;100.00
25944;BME280;13742;49.306;8.636;2022-12-07T02:04:54;100662.98;;;4.57;100.00
25944;BME280;13742;49.306;8.636;2022-12-07T02:05:54;100660.75;;;4.56;100.00
25944;BME280;13742;49.306;8.636;2022-12-07T02:06:54;100661.84;;;4.57;100.00
25944;BME280;13742;49.306;8.636;2022-12-07T02:07:55;100660.38;;;4.57;100.00
25944;BME280;13742;49.306;8.636;2022-12-07T02:08:54;100658.81;;;4.57;100.00
25944;BME280;13742;49.306;8.636;2022-12-07T02:09:54;100656.77;;;4.57;100.00
25944;BME280;13742;49.306;8.636;2022-12-07T02:10:54;100656.19;;;4.57;100.00
25944;BME280;13742;49.306;8.636;2022-12-07T02:11:54;100651.45;;;4.56;100.00
25944;BME280;13742;49.306;8.636;2022-12-07T02:13:02;100654.23;;;4.56;100.00
25944;BME280;13742;49.306;8.636;2022-12-07T02:13:54;100652.33;;;4.56;100.00
25944;BME280;13742;49.306;8.636;2022-12-07T02:14:54;100651.44;;;4.56;100.00
25944;BME280;13742;49.306;8.636;2022-12-07T02:17:01;100651.45;;;4.55;100.00
25944;BME280;13742;49.306;8.636;2022-12-07T02:18:16;100654.11;;;4.55;100.00
25944;BME280;13742;49.306;8.636;2022-12-07T02:21:00;100661.92;;;4.54;100.00
25944;BME280;13742;49.306;8.636;2022-12-07T02:21:58;100663.08;;;4.53;100.00
25944;BME280;13742;49.306;8.636;2022-12-07T02:23:00;100664.37;;;4.44;100.00
25944;BME280;13742;49.306;8.636;2022-12-07T02:27:02;100664.30;;;4.40;100.00
25944;BME280;13742;49.306;8.636;2022-12-07T02:30:54;100656.28;;;4.44;100.00
25944;BME280;13742;49.306;8.636;2022-12-07T02:32:01;100653.73;;;4.44;100.00
25944;BME280;13742;49.306;8.636;2022-12-07T02:33:03;100653.91;;;4.44;100.00
25944;BME280;13742;49.306;8.636;2022-12-07T02:33:57;100655.05;;;4.44;100.00
25944;BME280;13742;49.306;8.636;2022-12-07T02:34:56;100653.56;;;4.45;100.00
25944;BME280;13742;49.306;8.636;2022-12-07T02:35:59;100653.05;;;4.47;100.00
25944;BME280;13742;49.306;8.636;2022-12-07T02:36:55;100655.44;;;4.48;100.00
25944;BME280;13742;49.306;8.636;2022-12-07T02:38:55;100655.99;;;4.49;100.00
25944;BME280;13742;49.306;8.636;2022-12-07T02:39:56;100652.52;;;4.49;100.00
25944;BME280;13742;49.306;8.636;2022-12-07T02:41:02;100650.50;;;4.50;100.00
25944;BME280;13742;49.306;8.636;2022-12-07T02:41:55;100648.81;;;4.51;100.00
25944;BME280;13742;49.306;8.636;2022-12-07T02:43:00;100653.47;;;4.51;100.00
25944;BME280;13742;49.306;8.636;2022-12-07T02:43:55;100655.39;;;4.51;100.00
25944;BME280;13742;49.306;8.636;2022-12-07T02:44:54;100649.50;;;4.51;100.00
25944;BME280;13742;49.306;8.636;2022-12-07T02:45:56;100649.66;;;4.52;100.00
25944;BME280;13742;49.306;8.636;2022-12-07T02:46:55;100647.32;;;4.52;100.00
25944;BME280;13742;49.306;8.636;2022-12-07T02:47:55;100651.69;;;4.52;100.00
25944;BME280;13742;49.306;8.636;2022-12-07T02:48:54;100651.83;;;4.54;100.00
25944;BME280;13742;49.306;8.636;2022-12-07T02:49:54;100650.52;;;4.54;100.00
25944;BME280;13742;49.306;8.636;2022-12-07T02:50:54;100646.88;;;4.52;100.00
25944;BME280;13742;49.306;8.636;2022-12-07T02:51:54;100645.36;;;4.52;100.00
25944;BME280;13742;49.306;8.636;2022-12-07T02:52:54;100647.28;;;4.52;100.00
25944;BME280;13742;49.306;8.636;2022-12-07T02:53:54;100647.45;;;4.52;100.00
25944;BME280;13742;49.306;8.636;2022-12-07T02:54:54;100645.86;;;4.51;100.00
25944;BME280;13742;49.306;8.636;2022-12-07T02:55:54;100640.79;;;4.51;100.00
25944;BME280;13742;49.306;8.636;2022-12-07T03:00:58;100626.82;;;4.51;100.00
25944;BME280;13742;49.306;8.636;2022-12-07T03:01:58;100620.45;;;4.50;100.00
25944;BME280;13742;49.306;8.636;2022-12-07T03:02:57;100615.71;;;4.48;100.00
25944;BME280;13742;49.306;8.636;2022-12-07T03:04:00;100617.37;;;4.46;100.00
25944;BME280;13742;49.306;8.636;2022-12-07T03:07:00;100615.26;;;4.40;100.00
25944;BME280;13742;49.306;8.636;2022-12-07T03:07:58;100623.92;;;4.40;100.00
25944;BME280;13742;49.306;8.636;2022-12-07T03:11:14;100633.61;;;4.35;100.00
25944;BME280;13742;49.306;8.636;2022-12-07T03:11:56;100641.20;;;4.23;100.00
25944;BME280;13742;49.306;8.636;2022-12-07T03:13:01;100646.23;;;4.17;100.00
25944;BME280;13742;49.306;8.636;2022-12-07T03:14:56;100650.96;;;4.17;100.00
25944;BME280;13742;49.306;8.636;2022-12-07T03:17:00;100655.04;;;4.18;100.00
25944;BME280;13742;49.306;8.636;2022-12-07T03:17:54;100657.34;;;4.22;100.00
25944;BME280;13742;49.306;8.636;2022-12-07T03:19:55;100655.81;;;4.24;100.00
25944;BME280;13742;49.306;8.636;2022-12-07T03:20:55;100654.38;;;4.24;100.00
25944;BME280;13742;49.306;8.636;2022-12-07T03:21:56;100649.38;;;4.25;100.00
25944;BME280;13742;49.306;8.636;2022-12-07T03:22:54;100653.98;;;4.26;100.00
25944;BME280;13742;49.306;8.636;2022-12-07T03:23:56;100652.52;;;4.26;100.00
25944;BME280;13742;49.306;8.636;2022-12-07T03:24:55;100649.84;;;4.27;100.00
25944;BME280;13742;49.306;8.636;2022-12-07T03:25:55;100646.48;;;4.27;100.00
25944;BME280;13742;49.306;8.636;2022-12-07T03:27:16;100647.45;;;4.28;100.00
25944;BME280;13742;49.306;8.636;2022-12-07T03:27:57;100645.77;;;4.29;100.00
25944;BME280;13742;49.306;8.636;2022-12-07T03:28:55;100645.09;;;4.30;100.00
25944;BME280;13742;49.306;8.636;2022-12-07T03:29:56;100646.66;;;4.32;100.00
25944;BME280;13742;49.306;8.636;2022-12-07T03:30:59;100645.69;;;4.32;100.00
25944;BME280;13742;49.306;8.636;2022-12-07T03:31:56;100648.33;;;4.32;100.00
25944;BME280;13742;49.306;8.636;2022-12-07T03:32:57;100645.86;;;4.33;100.00
25944;BME280;13742;49.306;8.636;2022-12-07T03:33:59;100646.78;;;4.34;100.00
25944;BME280;13742;49.306;8.636;2022-12-07T03:35:04;100644.34;;;4.34;100.00
25944;BME280;13742;49.306;8.636;2022-12-07T03:36:00;100646.78;;;4.34;100.00
25944;BME280;13742;49.306;8.636;2022-12-07T03:36:59;100642.21;;;4.34;100.00
25944;BME280;13742;49.306;8.636;2022-12-07T03:37:59;100640.30;;;4.34;100.00
25944;BME280;13742;49.306;8.636;2022-12-07T03:39:00;100642.48;;;4.35;100.00
25944;BME280;13742;49.306;8.636;2022-12-07T03:39:57;100639.75;;;4.35;100.00
25944;BME280;13742;49.306;8.636;2022-12-07T03:41:54;100633.53;;;4.35;100.00
25944;BME280;13742;49.306;8.636;2022-12-07T03:42:54;100633.91;;;4.35;100.00
25944;BME280;13742;49.306;8.636;2022-12-07T03:43:54;100630.28;;;4.34;100.00
25944;BME280;13742;49.306;8.636;2022-12-07T03:44:54;100629.30;;;4.34;100.00
25944;BME280;13742;49.306;8.636;2022-12-07T03:45:58;100629.74;;;4.34;100.00
25944;BME280;13742;49.306;8.636;2022-12-07T03:48:59;100628.64;;;4.34;100.00
25944;BME280;13742;49.306;8.636;2022-12-07T03:49:56;100626.47;;;4.34;100.00
25944;BME280;13742;49.306;8.636;2022-12-07T03:51:56;100626.13;;;4.34;100.00
25944;BME280;13742;49.306;8.636;2022-12-07T03:52:55;100624.81;;;4.34;100.00
25944;BME280;13742;49.306;8.636;2022-12-07T03:53:57;100628.22;;;4.32;100.00
25944;BME280;13742;49.306;8.636;2022-12-07T03:55:54;100625.20;;;4.32;100.00
25944;BME280;13742;49.306;8.636;2022-12-07T03:56:54;100623.47;;;4.31;100.00
25944;BME280;13742;49.306;8.636;2022-12-07T03:57:55;100626.20;;;4.31;100.00
25944;BME280;13742;49.306;8.636;2022-12-07T03:58:54;100621.07;;;4.30;100.00
25944;BME280;13742;49.306;8.636;2022-12-07T03:59:54;100617.16;;;4.29;100.00
25944;BME280;13742;49.306;8.636;2022-12-07T04:00:54;100623.16;;;4.29;100.00
25944;BME280;13742;49.306;8.636;2022-12-07T04:01:55;100621.29;;;4.29;100.00
25944;BME280;13742;49.306;8.636;2022-12-07T04:02:54;100619.30;;;4.28;100.00
25944;BME280;13742;49.306;8.636;2022-12-07T04:03:54;100617.22;;;4.28;100.00
25944;BME280;13742;49.306;8.636;2022-12-07T04:04:55;100618.41;;;4.28;100.00
25944;BME280;13742;49.306;8.636;2022-12-07T04:05:54;100617.05;;;4.28;100.00
25944;BME280;13742;49.306;8.636;2022-12-07T04:06:54;100616.40;;;4.28;100.00
25944;BME280;13742;49.306;8.636;2022-12-07T04:07:54;100620.09;;;4.29;100.00
25944;BME280;13742;49.306;8.636;2022-12-07T04:08:55;100621.52;;;4.29;100.00
25944;BME280;13742;49.306;8.636;2022-12-07T04:09:57;100619.89;;;4.29;100.00
25944;BME280;13742;49.306;8.636;2022-12-07T04:10:54;100622.33;;;4.30;100.00
25944;BME280;13742;49.306;8.636;2022-12-07T04:11:54;100623.10;;;4.30;100.00
25944;BME280;13742;49.306;8.636;2022-12-07T04:12:54;100624.77;;;4.31;100.00
25944;BME280;13742;49.306;8.636;2022-12-07T04:13:59;100627.02;;;4.31;100.00
25944;BME280;13742;49.306;8.636;2022-12-07T04:14:54;100622.55;;;4.31;100.00
25944;BME280;13742;49.306;8.636;2022-12-07T04:15:54;100627.32;;;4.33;100.00
25944;BME280;13742;49.306;8.636;2022-12-07T04:16:57;100625.69;;;4.33;100.00
25944;BME280;13742;49.306;8.636;2022-12-07T04:17:54;100625.70;;;4.31;100.00
25944;BME280;13742;49.306;8.636;2022-12-07T04:18:54;100624.49;;;4.31;100.00
25944;BME280;13742;49.306;8.636;2022-12-07T04:19:54;100625.27;;;4.31;100.00
25944;BME280;13742;49.306;8.636;2022-12-07T04:20:54;100625.38;;;4.31;100.00
25944;BME280;13742;49.306;8.636;2022-12-07T04:21:55;100624.02;;;4.31;100.00
25944;BME280;13742;49.306;8.636;2022-12-07T04:22:54;100619.39;;;4.30;100.00
25944;BME280;13742;49.306;8.636;2022-12-07T04:23:54;100617.59;;;4.30;100.00
25944;BME280;13742;49.306;8.636;2022-12-07T04:24:54;100616.56;;;4.30;100.00
25944;BME280;13742;49.306;8.636;2022-12-07T04:25:54;100615.84;;;4.30;100.00
25944;BME280;13742;49.306;8.636;2022-12-07T04:26:54;100611.42;;;4.30;100.00
25944;BME280;13742;49.306;8.636;2022-12-07T04:27:54;100612.41;;;4.30;100.00
25944;BME280;13742;49.306;8.636;2022-12-07T04:28:54;100612.36;;;4.30;100.00
25944;BME280;13742;49.306;8.636;2022-12-07T04:29:55;100614.09;;;4.29;100.00
25944;BME280;13742;49.306;8.636;2022-12-07T04:30:54;100611.82;;;4.28;100.00
25944;BME280;13742;49.306;8.636;2022-12-07T04:31:54;100614.06;;;4.28;100.00
25944;BME280;13742;49.306;8.636;2022-12-07T04:32:54;100612.88;;;4.29;100.00
25944;BME280;13742;49.306;8.636;2022-12-07T04:33:54;100611.61;;;4.28;100.00
25944;BME280;13742;49.306;8.636;2022-12-07T04:34:54;100613.34;;;4.28;100.00
25944;BME280;13742;49.306;8.636;2022-12-07T04:35:54;100613.84;;;4.29;100.00
25944;BME280;13742;49.306;8.636;2022-12-07T04:36:54;100615.31;;;4.29;100.00
25944;BME280;13742;49.306;8.636;2022-12-07T04:37:54;100616.30;;;4.29;100.00
25944;BME280;13742;49.306;8.636;2022-12-07T04:38:54;100615.97;;;4.29;100.00
25944;BME280;13742;49.306;8.636;2022-12-07T04:39:54;100617.55;;;4.30;100.00
25944;BME280;13742;49.306;8.636;2022-12-07T04:40:54;100617.91;;;4.28;100.00
25944;BME280;13742;49.306;8.636;2022-12-07T04:41:54;100617.39;;;4.22;100.00
25944;BME280;13742;49.306;8.636;2022-12-07T04:42:54;100616.81;;;4.20;100.00
25944;BME280;13742;49.306;8.636;2022-12-07T04:43:59;100616.31;;;4.20;100.00
25944;BME280;13742;49.306;8.636;2022-12-07T04:44:54;100617.83;;;4.20;100.00
25944;BME280;13742;49.306;8.636;2022-12-07T04:45:54;100617.25;;;4.21;100.00
25944;BME280;13742;49.306;8.636;2022-12-07T04:46:54;100617.02;;;4.20;100.00
25944;BME280;13742;49.306;8.636;2022-12-07T04:47:54;100611.02;;;4.19;100.00
25944;BME280;13742;49.306;8.636;2022-12-07T04:48:54;100609.67;;;4.19;100.00
25944;BME280;13742;49.306;8.636;2022-12-07T04:49:54;100606.86;;;4.19;100.00
25944;BME280;13742;49.306;8.636;2022-12-07T04:50:54;100602.14;;;4.17;100.00
25944;BME280;13742;49.306;8.636;2022-12-07T04:51:54;100600.84;;;4.17;100.00
25944;BME280;13742;49.306;8.636;2022-12-07T04:52:54;100600.73;;;4.16;100.00
25944;BME280;13742;49.306;8.636;2022-12-07T04:53:54;100598.12;;;4.16;100.00
25944;BME280;13742;49.306;8.636;2022-12-07T04:54:54;100598.30;;;4.15;100.00
25944;BME280;13742;49.306;8.636;2022-12-07T04:55:54;100596.41;;;4.16;100.00
25944;BME280;13742;49.306;8.636;2022-12-07T04:56:54;100597.74;;;4.16;100.00
25944;BME280;13742;49.306;8.636;2022-12-07T04:57:54;100601.13;;;4.17;100.00
25944;BME280;13742;49.306;8.636;2022-12-07T04:58:54;100601.62;;;4.17;100.00
25944;BME280;13742;49.306;8.636;2022-12-07T04:59:54;100604.56;;;4.17;100.00
25944;BME280;13742;49.306;8.636;2022-12-07T05:00:54;100604.11;;;4.17;100.00
25944;BME280;13742;49.306;8.636;2022-12-07T05:01:54;100601.56;;;4.18;100.00
25944;BME280;13742;49.306;8.636;2022-12-07T05:02:54;100604.27;;;4.17;100.00
25944;BME280;13742;49.306;8.636;2022-12-07T05:03:54;100603.84;;;4.16;100.00
25944;BME280;13742;49.306;8.636;2022-12-07T05:04:54;100606.34;;;4.17;100.00
25944;BME280;13742;49.306;8.636;2022-12-07T05:05:54;100607.70;;;4.17;100.00
25944;BME280;13742;49.306;8.636;2022-12-07T05:06:54;100607.61;;;4.21;100.00
25944;BME280;13742;49.306;8.636;2022-12-07T05:07:54;100606.56;;;4.22;100.00
25944;BME280;13742;49.306;8.636;2022-12-07T05:08:54;100604.09;;;4.23;100.00
25944;BME280;13742;49.306;8.636;2022-12-07T05:09:54;100605.30;;;4.24;100.00
25944;BME280;13742;49.306;8.636;2022-12-07T05:10:54;100607.65;;;4.26;100.00
25944;BME280;13742;49.306;8.636;2022-12-07T05:11:54;100603.82;;;4.25;100.00
25944;BME280;13742;49.306;8.636;2022-12-07T05:12:54;100605.84;;;4.24;100.00
25944;BME280;13742;49.306;8.636;2022-12-07T05:13:54;100606.70;;;4.24;100.00
25944;BME280;13742;49.306;8.636;2022-12-07T05:14:54;100601.59;;;4.24;100.00
25944;BME280;13742;49.306;8.636;2022-12-07T05:15:54;100605.13;;;4.25;100.00
25944;BME280;13742;49.306;8.636;2022-12-07T05:16:54;100608.90;;;4.27;100.00
25944;BME280;13742;49.306;8.636;2022-12-07T05:17:54;100606.66;;;4.26;100.00
25944;BME280;13742;49.306;8.636;2022-12-07T05:18:54;100607.31;;;4.26;100.00
25944;BME280;13742;49.306;8.636;2022-12-07T05:19:54;100606.34;;;4.26;100.00
25944;BME280;13742;49.306;8.636;2022-12-07T05:20:54;100609.77;;;4.26;100.00
25944;BME280;13742;49.306;8.636;2022-12-07T05:21:54;100610.02;;;4.23;100.00
25944;BME280;13742;49.306;8.636;2022-12-07T05:22:54;100612.94;;;4.19;100.00
25944;BME280;13742;49.306;8.636;2022-12-07T05:23:54;100614.69;;;4.22;100.00
25944;BME280;13742;49.306;8.636;2022-12-07T05:24:54;100614.13;;;4.21;100.00
25944;BME280;13742;49.306;8.636;2022-12-07T05:25:54;100612.13;;;4.21;100.00
25944;BME280;13742;49.306;8.636;2022-12-07T05:26:54;100612.89;;;4.22;100.00
25944;BME280;13742;49.306;8.636;2022-12-07T05:27:54;100614.69;;;4.22;100.00
25944;BME280;13742;49.306;8.636;2022-12-07T05:28:54;100614.34;;;4.23;100.00
25944;BME280;13742;49.306;8.636;2022-12-07T05:29:54;100611.28;;;4.23;100.00
25944;BME280;13742;49.306;8.636;2022-12-07T05:30:54;100611.70;;;4.25;100.00
25944;BME280;13742;49.306;8.636;2022-12-07T05:31:54;100610.69;;;4.25;100.00
25944;BME280;13742;49.306;8.636;2022-12-07T05:32:54;100613.37;;;4.26;100.00
25944;BME280;13742;49.306;8.636;2022-12-07T05:33:54;100610.52;;;4.25;100.00
25944;BME280;13742;49.306;8.636;2022-12-07T05:34:54;100613.15;;;4.27;100.00
25944;BME280;13742;49.306;8.636;2022-12-07T05:35:54;100609.48;;;4.26;100.00
25944;BME280;13742;49.306;8.636;2022-12-07T05:36:54;100609.09;;;4.28;100.00
25944;BME280;13742;49.306;8.636;2022-12-07T05:37:54;100608.67;;;4.28;100.00
25944;BME280;13742;49.306;8.636;2022-12-07T05:38:54;100608.70;;;4.29;100.00
25944;BME280;13742;49.306;8.636;2022-12-07T05:39:54;100607.63;;;4.29;100.00
25944;BME280;13742;49.306;8.636;2022-12-07T05:40:54;100610.84;;;4.30;100.00
25944;BME280;13742;49.306;8.636;2022-12-07T05:41:59;100610.88;;;4.31;100.00
25944;BME280;13742;49.306;8.636;2022-12-07T05:42:54;100608.80;;;4.31;100.00
25944;BME280;13742;49.306;8.636;2022-12-07T05:43:55;100608.39;;;4.30;100.00
25944;BME280;13742;49.306;8.636;2022-12-07T05:44:54;100608.10;;;4.31;100.00
25944;BME280;13742;49.306;8.636;2022-12-07T05:45:54;100608.09;;;4.32;100.00